Orford, New Hampshire
Current Conditions -  °F | °C
As of 1:53 AM on Friday 31 Oct 2014 (Local Time) from KLEB Reporting Station
Overcast Overcast  
Wind Chill: 42°   Ceiling: 4000
Heat Index: 42°   Visibility: 10mi
Dew Point: 36°   Wind: 0mph
Humidity: 79%   Direction: NA
Pressure: 30"   Gusts: NA
Location:  43.91°N, 72.14°W
Report Text: KLEB 310553Z AUTO 00000KT 10SM OVC040 06/02 A3000 RMK AO2 SLP162 T00560022 10067 20039 51004
Loading
Personal Weather Stations






























Interactive Weather Map
Tropical Storm Tracking
New forecast layout! Learn more

10-Day Weather Forecast

Advertisements
Track Severe Weather on mobile